createdAt,value
2018-12-04T00:02:08.843Z,10.60
2018-12-04T00:04:37.352Z,10.60
2018-12-04T00:07:05.982Z,10.60
2018-12-04T00:09:34.336Z,10.50
2018-12-04T00:12:02.689Z,10.40
2018-12-04T00:14:31.105Z,10.60
2018-12-04T00:16:59.568Z,10.60
2018-12-04T00:19:27.967Z,10.50
2018-12-04T00:21:56.342Z,10.50
2018-12-04T00:24:24.838Z,10.40
2018-12-04T00:26:53.359Z,10.40
2018-12-04T00:29:21.701Z,10.40
2018-12-04T00:31:50.105Z,10.40
2018-12-04T00:34:18.444Z,10.40
2018-12-04T00:36:46.775Z,10.40
2018-12-04T00:39:15.197Z,10.40
2018-12-04T00:41:43.528Z,10.30
2018-12-04T00:44:11.876Z,10.30
2018-12-04T00:46:40.443Z,10.40
2018-12-04T00:49:08.835Z,10.30
2018-12-04T00:51:37.576Z,10.30
2018-12-04T00:54:05.908Z,10.30
2018-12-04T00:56:34.332Z,10.20
2018-12-04T00:59:02.683Z,10.10
2018-12-04T01:01:31.013Z,10.00
2018-12-04T01:03:59.583Z,9.90
2018-12-04T01:06:27.916Z,9.80
2018-12-04T01:08:56.281Z,9.80
2018-12-04T01:11:24.684Z,9.70
2018-12-04T01:13:53.032Z,9.70
2018-12-04T01:16:21.391Z,9.70
2018-12-04T01:18:49.789Z,9.70
2018-12-04T01:21:18.155Z,9.80
2018-12-04T01:23:46.477Z,9.90
2018-12-04T01:26:14.863Z,9.90
2018-12-04T01:28:43.317Z,9.90
2018-12-04T01:31:11.758Z,9.90
2018-12-04T01:33:40.160Z,10.00
2018-12-04T01:36:08.521Z,9.90
2018-12-04T01:38:36.844Z,9.80
2018-12-04T01:41:05.204Z,9.80
2018-12-04T01:43:33.643Z,9.80
2018-12-04T01:46:02.019Z,9.70
2018-12-04T01:48:30.348Z,9.70
2018-12-04T01:50:58.933Z,9.60
2018-12-04T01:53:27.311Z,9.50
2018-12-04T01:55:55.660Z,9.60
2018-12-04T01:58:24.009Z,9.70
2018-12-04T02:00:52.367Z,9.90
2018-12-04T02:03:20.760Z,10.00
2018-12-04T02:05:49.128Z,10.00
2018-12-04T02:08:17.480Z,9.90
2018-12-04T02:10:45.869Z,9.90
2018-12-04T02:13:14.195Z,10.00
2018-12-04T02:15:42.654Z,10.00
2018-12-04T02:18:10.959Z,10.00
2018-12-04T02:20:39.343Z,10.00
2018-12-04T02:23:07.785Z,10.00
2018-12-04T02:25:36.117Z,10.00
2018-12-04T02:28:04.460Z,10.00
2018-12-04T02:30:32.943Z,9.90
2018-12-04T02:33:01.264Z,9.90
2018-12-04T02:35:29.612Z,9.90
2018-12-04T02:37:57.944Z,9.90
2018-12-04T02:40:26.294Z,9.90
2018-12-04T02:42:54.616Z,9.80
2018-12-04T02:45:22.970Z,9.80
2018-12-04T02:47:51.375Z,9.90
2018-12-04T02:50:19.788Z,9.90
2018-12-04T02:52:48.123Z,9.80
2018-12-04T02:55:16.462Z,9.90
2018-12-04T02:57:44.918Z,10.00
2018-12-04T03:00:13.283Z,10.10
2018-12-04T03:02:41.723Z,10.10
2018-12-04T03:05:10.049Z,10.10
2018-12-04T03:07:38.464Z,10.10
2018-12-04T03:10:07.299Z,10.00
2018-12-04T03:12:35.625Z,10.00
2018-12-04T03:15:04.032Z,10.00
2018-12-04T03:17:32.397Z,10.10
2018-12-04T03:20:01.061Z,10.20
2018-12-04T03:22:29.440Z,10.10
2018-12-04T03:24:57.794Z,10.10
2018-12-04T03:27:26.332Z,10.10
2018-12-04T03:29:54.649Z,10.20
2018-12-04T03:32:23.008Z,10.20
2018-12-04T03:34:51.342Z,10.20
2018-12-04T03:37:19.782Z,10.20
2018-12-04T03:39:48.119Z,10.20
2018-12-04T03:42:16.496Z,10.20
2018-12-04T03:44:44.846Z,10.30
2018-12-04T03:47:13.386Z,10.30
2018-12-04T03:49:41.757Z,10.30
2018-12-04T03:52:10.124Z,10.20
2018-12-04T03:54:38.461Z,10.30
2018-12-04T03:57:06.815Z,10.30
2018-12-04T03:59:35.164Z,10.30
2018-12-04T04:02:03.639Z,10.30
2018-12-04T04:04:32.352Z,10.30
2018-12-04T04:07:00.696Z,10.30
2018-12-04T04:09:29.161Z,10.20
2018-12-04T04:11:57.557Z,10.10
2018-12-04T04:14:26.039Z,10.00
2018-12-04T04:16:54.377Z,9.90
2018-12-04T04:19:22.728Z,9.90
2018-12-04T04:21:51.147Z,9.90
2018-12-04T04:24:19.663Z,9.90
2018-12-04T04:26:48.076Z,9.90
2018-12-04T04:29:16.404Z,9.90
2018-12-04T04:31:44.796Z,9.90
2018-12-04T04:34:13.233Z,9.90
2018-12-04T04:36:42.069Z,9.80
2018-12-04T04:39:10.429Z,9.80
2018-12-04T04:41:38.873Z,9.80
2018-12-04T04:44:07.181Z,9.70
2018-12-04T04:46:35.552Z,9.70
2018-12-04T04:49:03.882Z,9.70
2018-12-04T04:51:32.217Z,9.70
2018-12-04T04:54:00.667Z,9.70
2018-12-04T04:56:29.105Z,9.60
2018-12-04T04:58:57.434Z,9.70
2018-12-04T05:01:26.157Z,9.70
2018-12-04T05:03:54.518Z,9.70
2018-12-04T05:06:22.857Z,9.50
2018-12-04T05:08:51.380Z,9.60
2018-12-04T05:11:19.815Z,9.60
2018-12-04T05:13:48.123Z,9.60
2018-12-04T05:16:16.485Z,9.60
2018-12-04T05:18:44.809Z,9.60
2018-12-04T05:21:13.165Z,9.60
2018-12-04T05:23:41.654Z,9.60
2018-12-04T05:26:09.971Z,9.50
2018-12-04T05:28:38.353Z,9.50
2018-12-04T05:31:06.775Z,9.60
2018-12-04T05:33:36.519Z,9.50
2018-12-04T05:36:05.023Z,9.40
2018-12-04T05:38:33.400Z,9.40
2018-12-04T05:41:01.909Z,9.40
2018-12-04T05:43:30.264Z,9.30
2018-12-04T05:45:58.660Z,9.30
2018-12-04T05:48:26.996Z,9.40
2018-12-04T05:50:55.440Z,9.40
2018-12-04T05:53:32.160Z,9.40
2018-12-04T05:56:00.496Z,9.40
2018-12-04T05:58:28.920Z,9.30
2018-12-04T06:00:57.317Z,9.30
2018-12-04T06:03:25.648Z,9.40
2018-12-04T06:05:53.996Z,9.40
2018-12-04T06:08:22.436Z,9.50
2018-12-04T06:10:50.816Z,9.40
2018-12-04T06:13:19.140Z,9.50
2018-12-04T06:15:47.813Z,9.50
2018-12-04T06:18:16.247Z,9.50
2018-12-04T06:20:44.561Z,9.50
2018-12-04T06:23:13.044Z,9.60
2018-12-04T06:25:41.416Z,9.40
2018-12-04T06:28:09.993Z,9.40
2018-12-04T06:30:38.333Z,9.50
2018-12-04T06:33:06.647Z,9.50
2018-12-04T06:35:36.365Z,9.50
2018-12-04T06:38:04.706Z,9.50
2018-12-04T06:40:33.045Z,9.40
2018-12-04T06:43:01.418Z,9.30
2018-12-04T06:45:29.735Z,9.30
2018-12-04T06:47:58.152Z,9.30
2018-12-04T06:50:26.477Z,9.20
2018-12-04T06:52:54.847Z,9.20
2018-12-04T06:55:23.192Z,9.10
2018-12-04T06:57:57.388Z,9.10
2018-12-04T07:00:25.724Z,9.10
2018-12-04T07:02:54.160Z,9.10
2018-12-04T07:05:22.517Z,9.00
2018-12-04T07:07:50.985Z,9.00
2018-12-04T07:10:19.445Z,8.90
2018-12-04T07:12:47.776Z,9.00
2018-12-04T07:15:16.112Z,8.90
2018-12-04T07:17:44.475Z,8.90
2018-12-04T07:20:12.913Z,8.90
2018-12-04T07:22:41.269Z,9.00
2018-12-04T07:25:09.604Z,8.90
2018-12-04T07:27:37.920Z,9.00
2018-12-04T07:30:08.176Z,8.90
2018-12-04T07:32:38.865Z,9.00
2018-12-04T07:35:08.316Z,9.00
2018-12-04T07:37:36.639Z,8.90
2018-12-04T07:40:05.651Z,8.90
2018-12-04T07:42:34.085Z,8.90
2018-12-04T07:45:02.422Z,8.80
2018-12-04T07:47:30.756Z,8.80
2018-12-04T07:49:59.135Z,8.80
2018-12-04T07:52:27.645Z,8.70
2018-12-04T07:54:56.427Z,8.90
2018-12-04T07:57:24.770Z,8.90
2018-12-04T07:59:53.349Z,8.90
2018-12-04T08:02:21.715Z,8.80
2018-12-04T08:04:50.020Z,8.90
2018-12-04T08:07:18.481Z,8.80
2018-12-04T08:09:46.829Z,8.90
2018-12-04T08:12:15.169Z,9.00
2018-12-04T08:14:43.543Z,9.10
2018-12-04T08:17:11.909Z,9.20
2018-12-04T08:19:40.365Z,9.10
2018-12-04T08:22:08.704Z,9.10
2018-12-04T08:24:37.109Z,9.00
2018-12-04T08:27:05.472Z,9.20
2018-12-04T08:29:33.824Z,9.30
2018-12-04T08:32:02.236Z,9.30
2018-12-04T08:34:30.648Z,9.30
2018-12-04T08:36:59.111Z,9.30
2018-12-04T08:39:27.540Z,9.30
2018-12-04T08:41:55.936Z,9.30
2018-12-04T08:44:24.282Z,9.30
2018-12-04T08:46:52.649Z,9.50
2018-12-04T08:49:20.971Z,9.50
2018-12-04T08:51:49.442Z,9.60
2018-12-04T08:54:17.774Z,9.60
2018-12-04T08:56:46.165Z,9.70
2018-12-04T08:59:14.607Z,9.80
2018-12-04T09:01:42.962Z,9.70
2018-12-04T09:04:11.328Z,9.80
2018-12-04T09:06:39.744Z,9.70
2018-12-04T09:09:09.890Z,9.60
2018-12-04T09:11:38.271Z,9.60
2018-12-04T09:14:07.601Z,9.80
2018-12-04T09:16:35.956Z,9.80
2018-12-04T09:19:04.417Z,9.70
2018-12-04T09:21:32.853Z,9.60
2018-12-04T09:24:01.221Z,9.60
2018-12-04T09:26:29.694Z,9.50
2018-12-04T09:28:58.069Z,9.50
2018-12-04T09:31:26.436Z,9.40
2018-12-04T09:33:54.800Z,9.40
2018-12-04T09:36:23.159Z,9.40
2018-12-04T09:38:51.540Z,9.50
2018-12-04T09:41:19.920Z,9.50
2018-12-04T09:43:48.417Z,9.50
2018-12-04T09:46:16.780Z,9.60
2018-12-04T09:48:45.234Z,9.60
2018-12-04T09:51:13.644Z,9.70
2018-12-04T09:53:42.005Z,9.70
2018-12-04T09:56:10.376Z,10.00
2018-12-04T09:58:38.790Z,10.40
2018-12-04T10:01:07.175Z,10.40
2018-12-04T10:03:35.509Z,10.20
2018-12-04T10:06:03.863Z,10.30
2018-12-04T10:08:32.388Z,10.40
2018-12-04T10:11:00.885Z,10.30
2018-12-04T10:13:29.287Z,10.20
2018-12-04T10:15:57.722Z,10.00
2018-12-04T10:18:26.202Z,9.90
2018-12-04T10:20:54.629Z,9.90
2018-12-04T10:23:23.060Z,9.90
2018-12-04T10:25:51.831Z,9.70
2018-12-04T10:28:20.855Z,9.70
2018-12-04T10:30:54.615Z,9.60
2018-12-04T10:33:22.952Z,9.70
2018-12-04T10:35:51.304Z,9.70
2018-12-04T10:38:19.680Z,9.70
2018-12-04T10:40:47.994Z,9.80
2018-12-04T10:43:16.417Z,9.80
2018-12-04T10:45:44.745Z,9.90
2018-12-04T10:48:13.062Z,9.80
2018-12-04T10:50:41.412Z,9.70
2018-12-04T10:53:09.736Z,9.60
2018-12-04T10:55:38.091Z,9.50
2018-12-04T10:58:06.507Z,9.50
2018-12-04T11:00:41.323Z,9.40
2018-12-04T11:03:13.599Z,9.30
2018-12-04T11:05:42.709Z,9.20
2018-12-04T11:08:11.055Z,9.20
2018-12-04T11:10:39.469Z,9.30
2018-12-04T11:13:07.804Z,9.20
2018-12-04T11:15:36.164Z,9.30
2018-12-04T11:18:04.638Z,9.30
2018-12-04T11:20:33.015Z,9.30
2018-12-04T11:23:01.347Z,9.40
2018-12-04T11:25:29.684Z,9.40
2018-12-04T11:27:58.147Z,9.30
2018-12-04T11:30:26.452Z,9.40
2018-12-04T11:32:54.799Z,9.40
2018-12-04T11:35:23.147Z,9.40
2018-12-04T11:37:51.497Z,9.40
2018-12-04T11:40:19.828Z,9.50
2018-12-04T11:42:48.213Z,9.50
2018-12-04T11:45:16.531Z,9.40
2018-12-04T11:47:44.860Z,9.40
2018-12-04T11:50:13.219Z,9.40
2018-12-04T11:52:41.544Z,9.40
2018-12-04T11:55:09.875Z,9.40
2018-12-04T11:57:38.621Z,9.40
2018-12-04T12:00:14.991Z,9.30
2018-12-04T12:02:43.346Z,9.30
2018-12-04T12:05:11.675Z,9.40
2018-12-04T12:07:40.040Z,9.30
2018-12-04T12:10:08.376Z,9.40
2018-12-04T12:12:36.757Z,9.30
2018-12-04T12:15:05.768Z,9.30
2018-12-04T12:17:34.110Z,9.10
2018-12-04T12:20:02.679Z,9.00
2018-12-04T12:22:31.012Z,8.90
2018-12-04T12:24:59.433Z,8.80
2018-12-04T12:27:27.875Z,8.70
2018-12-04T12:29:56.297Z,8.70
2018-12-04T12:32:24.744Z,8.60
2018-12-04T12:34:53.111Z,8.50
2018-12-04T12:37:21.529Z,8.50
2018-12-04T12:39:50.026Z,8.50
2018-12-04T12:42:18.351Z,8.50
2018-12-04T12:44:46.699Z,8.40
2018-12-04T12:47:15.138Z,8.40
2018-12-04T12:49:43.510Z,8.50
2018-12-04T12:52:11.849Z,8.40
2018-12-04T12:54:40.254Z,8.30
2018-12-04T12:57:08.579Z,8.30
2018-12-04T12:59:36.972Z,8.30
2018-12-04T13:02:05.405Z,8.30
2018-12-04T13:04:33.753Z,8.40
2018-12-04T13:07:02.077Z,8.60
2018-12-04T13:09:30.436Z,8.50
2018-12-04T13:11:58.824Z,8.60
2018-12-04T13:14:27.171Z,8.60
2018-12-04T13:16:55.620Z,8.60
2018-12-04T13:19:24.295Z,8.70
2018-12-04T13:21:52.651Z,8.70
2018-12-04T13:24:20.981Z,8.70
2018-12-04T13:26:49.734Z,8.70
2018-12-04T13:29:18.170Z,8.60
2018-12-04T13:31:46.565Z,8.60
2018-12-04T13:34:14.896Z,8.50
2018-12-04T13:36:43.564Z,8.50
2018-12-04T13:39:11.934Z,8.50
2018-12-04T13:41:40.374Z,8.50
2018-12-04T13:44:08.696Z,8.50
2018-12-04T13:46:37.251Z,8.50
2018-12-04T13:49:05.649Z,8.50
2018-12-04T13:51:34.148Z,8.40
2018-12-04T13:54:02.509Z,8.40
2018-12-04T13:56:30.860Z,8.30
2018-12-04T13:58:59.297Z,8.20
2018-12-04T14:01:27.695Z,8.10
2018-12-04T14:03:56.112Z,8.10
2018-12-04T14:06:24.498Z,7.90
2018-12-04T14:08:52.969Z,7.90
2018-12-04T14:11:21.413Z,7.90
2018-12-04T14:13:49.943Z,7.80
2018-12-04T14:16:18.524Z,7.70
2018-12-04T14:18:46.948Z,7.70
2018-12-04T14:21:15.284Z,7.80
2018-12-04T14:23:43.772Z,7.70
2018-12-04T14:26:12.197Z,7.70
2018-12-04T14:28:40.671Z,7.70
2018-12-04T14:31:09.097Z,7.70
2018-12-04T14:33:37.539Z,7.70
2018-12-04T14:36:05.860Z,7.70
2018-12-04T14:38:34.525Z,7.70
2018-12-04T14:41:03.004Z,7.60
2018-12-04T14:43:31.448Z,7.60
2018-12-04T14:45:59.898Z,7.60
2018-12-04T14:48:28.379Z,7.70
2018-12-04T14:50:56.880Z,7.70
2018-12-04T14:53:25.226Z,7.90
2018-12-04T14:55:53.729Z,7.90
2018-12-04T14:58:22.171Z,7.90
2018-12-04T15:00:50.679Z,7.90
2018-12-04T15:03:19.119Z,7.90
2018-12-04T15:05:47.568Z,7.90
2018-12-04T15:08:16.924Z,7.80
2018-12-04T15:10:45.517Z,7.80
2018-12-04T15:13:14.125Z,7.80
2018-12-04T15:15:42.732Z,7.70
2018-12-04T15:18:11.296Z,7.70
2018-12-04T15:20:39.724Z,7.70
2018-12-04T15:23:08.116Z,7.70
2018-12-04T15:25:36.667Z,7.60
2018-12-04T15:28:05.167Z,7.50
2018-12-04T15:30:33.518Z,7.50
2018-12-04T15:33:01.960Z,7.50
2018-12-04T15:35:30.719Z,7.50
2018-12-04T15:37:59.385Z,7.50
2018-12-04T15:40:27.887Z,7.40
2018-12-04T15:42:56.333Z,7.30
2018-12-04T15:45:24.764Z,7.30
2018-12-04T15:47:53.242Z,7.20
2018-12-04T15:50:21.699Z,7.30
2018-12-04T15:52:50.185Z,7.20
2018-12-04T15:55:18.634Z,7.20
2018-12-04T15:57:47.087Z,7.20
2018-12-04T16:00:15.455Z,7.30
2018-12-04T16:02:43.960Z,7.20
2018-12-04T16:05:12.406Z,7.20
2018-12-04T16:07:40.773Z,7.10
2018-12-04T16:10:12.994Z,7.10
2018-12-04T16:12:41.414Z,7.20
2018-12-04T16:15:09.758Z,7.20
2018-12-04T16:17:38.197Z,7.30
2018-12-04T16:20:07.612Z,7.10
2018-12-04T16:22:36.103Z,7.10
2018-12-04T16:25:04.725Z,7.00
2018-12-04T16:27:33.085Z,7.00
2018-12-04T16:30:01.505Z,7.00
2018-12-04T16:32:29.883Z,7.00
2018-12-04T16:34:58.220Z,7.10
2018-12-04T16:37:26.629Z,7.10
2018-12-04T16:39:54.985Z,7.10
2018-12-04T16:42:23.537Z,7.20
2018-12-04T16:44:51.932Z,7.30
2018-12-04T16:47:20.279Z,7.30
2018-12-04T16:49:48.692Z,7.40
2018-12-04T16:52:17.018Z,7.30
2018-12-04T16:54:45.364Z,7.30
2018-12-04T16:57:13.800Z,7.30
2018-12-04T16:59:42.261Z,7.30
2018-12-04T17:02:10.593Z,7.30
2018-12-04T17:04:39.186Z,7.30
2018-12-04T17:07:07.641Z,7.30
2018-12-04T17:09:36.404Z,7.20
2018-12-04T17:12:04.769Z,7.20
2018-12-04T17:14:33.206Z,7.20
2018-12-04T17:17:01.816Z,7.20
2018-12-04T17:19:30.168Z,7.10
2018-12-04T17:21:58.556Z,7.10
2018-12-04T17:24:27.197Z,7.20
2018-12-04T17:26:55.600Z,7.20
2018-12-04T17:29:23.965Z,7.20
2018-12-04T17:31:52.479Z,7.20
2018-12-04T17:34:21.069Z,7.20
2018-12-04T17:36:49.419Z,7.20
2018-12-04T17:39:17.931Z,7.20
2018-12-04T17:41:46.408Z,7.10
2018-12-04T17:44:14.847Z,7.20
2018-12-04T17:46:43.321Z,7.20
2018-12-04T17:49:11.688Z,7.30
2018-12-04T17:51:40.039Z,7.30
2018-12-04T17:54:08.631Z,7.20
2018-12-04T17:56:37.540Z,7.20
2018-12-04T17:59:07.017Z,7.20
2018-12-04T18:01:35.825Z,7.20
2018-12-04T18:04:04.269Z,7.20
2018-12-04T18:06:32.659Z,7.20
2018-12-04T18:09:01.072Z,7.20
2018-12-04T18:11:29.456Z,7.20
2018-12-04T18:13:57.788Z,7.20
2018-12-04T18:16:26.172Z,7.20
2018-12-04T18:18:54.536Z,7.10
2018-12-04T18:21:22.899Z,7.10
2018-12-04T18:23:51.312Z,7.10
2018-12-04T18:26:19.686Z,7.00
2018-12-04T18:28:48.093Z,7.10
2018-12-04T18:31:16.560Z,7.00
2018-12-04T18:33:44.952Z,7.20
2018-12-04T18:36:13.318Z,7.30
2018-12-04T18:38:41.793Z,7.30
2018-12-04T18:41:10.149Z,7.30
2018-12-04T18:43:38.628Z,7.30
2018-12-04T18:46:07.161Z,7.20
2018-12-04T18:48:35.702Z,7.30
2018-12-04T18:51:04.132Z,7.20
2018-12-04T18:53:32.549Z,7.30
2018-12-04T18:56:00.916Z,7.20
2018-12-04T18:58:29.335Z,7.10
2018-12-04T19:00:57.973Z,7.00
2018-12-04T19:03:26.359Z,7.10
2018-12-04T19:05:54.818Z,7.10
2018-12-04T19:08:27.629Z,7.10
2018-12-04T19:10:56.043Z,7.00
2018-12-04T19:13:24.435Z,6.80
2018-12-04T19:15:52.900Z,6.70
2018-12-04T19:18:21.248Z,6.70
2018-12-04T19:20:49.700Z,6.60
2018-12-04T19:23:18.036Z,6.50
2018-12-04T19:25:47.117Z,6.40
2018-12-04T19:28:15.543Z,6.40
2018-12-04T19:30:44.184Z,6.40
2018-12-04T19:33:12.544Z,6.50
2018-12-04T19:35:40.956Z,6.70
2018-12-04T19:38:09.360Z,6.60
2018-12-04T19:40:37.973Z,6.40
2018-12-04T19:43:06.428Z,6.30
2018-12-04T19:45:35.105Z,6.30
2018-12-04T19:48:03.587Z,6.40
2018-12-04T19:50:31.986Z,6.40
2018-12-04T19:53:01.365Z,6.20
2018-12-04T19:55:29.714Z,6.20
2018-12-04T19:57:58.372Z,6.20
2018-12-04T20:00:26.821Z,6.10
2018-12-04T20:02:55.184Z,6.20
2018-12-04T20:05:23.662Z,6.30
2018-12-04T20:07:52.157Z,6.20
2018-12-04T20:10:20.623Z,5.90
2018-12-04T20:12:49.027Z,5.90
2018-12-04T20:15:17.408Z,6.00
2018-12-04T20:17:45.927Z,6.00
2018-12-04T20:20:14.646Z,6.10
2018-12-04T20:22:43.131Z,6.20
2018-12-04T20:25:12.633Z,6.20
2018-12-04T20:27:41.276Z,6.20
2018-12-04T20:30:09.671Z,6.40
2018-12-04T20:32:38.155Z,6.30
2018-12-04T20:35:06.613Z,6.30
2018-12-04T20:37:34.988Z,6.20
2018-12-04T20:40:03.548Z,6.20
2018-12-04T20:42:31.984Z,6.00
2018-12-04T20:45:00.460Z,5.90
2018-12-04T20:47:28.956Z,5.90
2018-12-04T20:49:57.513Z,5.90
2018-12-04T20:52:26.645Z,6.00
2018-12-04T20:54:55.131Z,6.00
2018-12-04T20:57:23.544Z,5.90
2018-12-04T20:59:51.977Z,5.90
2018-12-04T21:02:20.399Z,5.80
2018-12-04T21:04:48.803Z,5.90
2018-12-04T21:07:17.156Z,6.00
2018-12-04T21:09:45.551Z,6.00
2018-12-04T21:12:14.060Z,5.90
2018-12-04T21:14:42.423Z,5.90
2018-12-04T21:17:10.835Z,5.90
2018-12-04T21:19:39.404Z,5.90
2018-12-04T21:22:07.776Z,5.80
2018-12-04T21:24:36.190Z,5.80
2018-12-04T21:27:11.640Z,5.90
2018-12-04T21:29:42.417Z,5.80
2018-12-04T21:32:16.278Z,5.80
2018-12-04T21:34:50.092Z,5.70
2018-12-04T21:37:23.845Z,5.70
2018-12-04T21:39:57.896Z,5.70
2018-12-04T21:42:31.656Z,5.70
2018-12-04T21:45:05.424Z,5.70
2018-12-04T21:48:07.322Z,5.70
2018-12-04T21:50:35.699Z,5.70
2018-12-04T21:53:04.121Z,5.80
2018-12-04T21:55:32.546Z,5.70
2018-12-04T21:58:00.947Z,5.70
2018-12-04T22:00:29.396Z,5.70
2018-12-04T22:02:57.779Z,5.70
2018-12-04T22:05:26.116Z,5.80
2018-12-04T22:07:54.916Z,5.80
2018-12-04T22:10:23.279Z,5.80
2018-12-04T22:12:51.663Z,5.80
2018-12-04T22:15:20.191Z,5.70
2018-12-04T22:17:48.532Z,5.70
2018-12-04T22:20:16.921Z,5.60
2018-12-04T22:22:45.271Z,5.70
2018-12-04T22:25:13.715Z,5.80
2018-12-04T22:27:42.065Z,5.80
2018-12-04T22:30:10.447Z,5.70
2018-12-04T22:32:38.884Z,5.60
2018-12-04T22:35:07.314Z,5.70
2018-12-04T22:37:35.670Z,5.70
2018-12-04T22:40:04.539Z,5.60
2018-12-04T22:42:33.053Z,5.60
2018-12-04T22:45:06.693Z,5.50
2018-12-04T22:47:35.042Z,5.60
2018-12-04T22:50:03.620Z,5.70
2018-12-04T22:52:32.027Z,5.70
2018-12-04T22:55:00.356Z,5.70
2018-12-04T22:57:28.730Z,5.70
2018-12-04T22:59:57.116Z,5.70
2018-12-04T23:02:25.537Z,5.80
2018-12-04T23:04:53.868Z,5.80
2018-12-04T23:07:22.437Z,5.80
2018-12-04T23:09:50.836Z,5.70
2018-12-04T23:12:19.189Z,5.60
2018-12-04T23:14:47.600Z,5.60
2018-12-04T23:17:16.009Z,5.70
2018-12-04T23:19:44.319Z,5.80
2018-12-04T23:22:12.741Z,5.80
2018-12-04T23:24:41.364Z,5.70
2018-12-04T23:27:09.718Z,5.70
2018-12-04T23:29:38.273Z,5.70
2018-12-04T23:32:06.797Z,5.70
2018-12-04T23:34:35.160Z,5.70
2018-12-04T23:37:03.500Z,5.70
2018-12-04T23:39:31.899Z,5.70
2018-12-04T23:42:00.572Z,5.70
2018-12-04T23:44:28.926Z,5.70
2018-12-04T23:46:57.372Z,5.70
2018-12-04T23:49:25.721Z,5.60
2018-12-04T23:51:54.197Z,5.70
2018-12-04T23:54:22.523Z,5.70
2018-12-04T23:56:51.088Z,5.70
2018-12-04T23:59:19.486Z,5.60
